CMA CGM Butterfly — A8NO8 — position and weather

sailwx.info

Track history (hours):
 
Tides and Currents Weather Stations Pressure Air Temp Water Temp Dewpoint Dewpoint Depression Visibility Wind Speed Wind Dir Waves Ship Positions

CMA CGM Butterfly

Last reported at 2015-Jan-28 22:32 UTC. Time now 2015-Jan-29 20:25 UTC.
Position N 02°03' E 102°10'.

Length 350 m; draft 13.8 m.

Type: Ship (hazmat cat A). MMSI: 636091420.

Date/timePositionNaut miles runAvg speedWind from/ knotsBaromVisibWave heightAir tempDewpointWater temp
2015-Jan-28 22:32N 02°03' E 102°10'1212.1
2015-Jan-28 21:31N 01°55' E 102°20'1111.8
2015-Jan-28 20:33N 01°50' E 102°30'1111.4
2015-Jan-28 19:34N 01°45' E 102°40'2511.8
2015-Jan-28 17:27N 01°31' E 103°02'5012.8
2015-Jan-28 13:34N 01°09' E 103°46'1413.7
2015-Jan-28 12:33N 01°15' E 103°59'1313.0
2015-Jan-28 11:32N 01°17' E 104°12'  
2015-Jan-25 09:29N 21°48' E 114°27'1818.8
2015-Jan-25 08:33N 22°05' E 114°25'1713.7
2015-Jan-25 07:20N 22°13' E 114°09'1011.5
2015-Jan-25 06:30N 22°22' E 114°04'1010.9
2015-Jan-25 05:33N 22°24' E 113°53'3 3.0
2015-Jan-25 04:32N 22°27' E 113°53'0 0.0
2015-Jan-25 03:32N 22°28' E 113°53'0 0.0
2015-Jan-25 02:26N 22°28' E 113°53'0 0.0
2015-Jan-25 01:20N 22°27' E 113°53'0 0.0
2015-Jan-25 00:26N 22°28' E 113°53'0 0.0
2015-Jan-24 23:32N 22°28' E 113°53'0 0.0
2015-Jan-24 22:20N 22°27' E 113°53'0 0.0
2015-Jan-24 21:32N 22°28' E 113°53'0 0.0
2015-Jan-24 20:32N 22°28' E 113°53'0 0.0
2015-Jan-24 19:32N 22°28' E 113°53'0 0.0
2015-Jan-24 16:26N 22°28' E 113°53'0 0.0
2015-Jan-24 15:26N 22°28' E 113°53'0 0.0
2015-Jan-24 14:20N 22°28' E 113°53'0 0.0
2015-Jan-24 13:26N 22°28' E 113°53'0 0.0
2015-Jan-24 12:14N 22°28' E 113°53'0 0.0
2015-Jan-24 11:14N 22°28' E 113°53'0 0.2
2015-Jan-24 10:32N 22°27' E 113°53'16 8.3
2015-Jan-24 08:33N 22°17' E 114°06'10 9.5
2015-Jan-24 07:33N 22°10' E 114°13'8 8.0
2015-Jan-24 06:32N 22°09' E 114°22'9 9.0
2015-Jan-24 05:32N 22°15' E 114°30'6 6.0
2015-Jan-24 04:33N 22°21' E 114°30'4 0.2
2015-Jan-23 08:32N 22°20' E 114°34'12617.4
2015-Jan-23 01:19N 22°49' E 116°46'1418.6
2015-Jan-23 00:33N 22°57' E 116°59'7318.2
2015-Jan-22 20:33N 23°43' E 118°00'1918.9
2015-Jan-22 19:33N 23°55' E 118°16'1817.5
2015-Jan-22 18:32N 24°04' E 118°33'2118.4
2015-Jan-22 17:24N 24°17' E 118°51'1618.4
2015-Jan-22 16:30N 24°24' E 119°07'2118.0
2015-Jan-22 15:21N 24°37' E 119°26'32117.9
2015-Jan-21 21:29N 29°11' E 122°33'2120.9
2015-Jan-21 20:29N 29°31' E 122°35'1718.7
2015-Jan-21 19:33N 29°43' E 122°21'1514.6
2015-Jan-21 18:34N 29°54' E 122°10'1312.8
2015-Jan-21 17:34N 29°56' E 121°55'0 0.3
2015-Jan-21 16:19N 29°56' E 121°56'0 0.0
2015-Jan-21 15:07N 29°56' E 121°56'0 0.0
2015-Jan-21 13:31N 29°56' E 121°56'0 0.0
2015-Jan-21 12:31N 29°56' E 121°56'0 0.0
2015-Jan-21 11:19N 29°56' E 121°56'0 0.0
2015-Jan-21 10:19N 29°56' E 121°56'0 0.0
2015-Jan-21 09:25N 29°56' E 121°56'0 0.0
2015-Jan-21 08:13N 29°56' E 121°56'0 0.0
2015-Jan-21 07:31N 29°56' E 121°56'0 0.0
2015-Jan-21 05:31N 29°56' E 121°56'0 0.0
2015-Jan-21 03:31N 29°56' E 121°56'0 0.0
2015-Jan-21 01:16N 29°56' E 121°56'0 0.0
2015-Jan-20 22:07N 29°56' E 121°56'0 0.0
2015-Jan-20 21:13N 29°56' E 121°56'0 0.0
2015-Jan-20 20:19N 29°56' E 121°56'0 0.0
2015-Jan-20 19:13N 29°56' E 121°56'0 0.0
2015-Jan-20 18:22N 29°56' E 121°56'0 0.0
2015-Jan-20 17:19N 29°56' E 121°56'0 0.0
2015-Jan-20 16:28N 29°56' E 121°56'0 0.0
2015-Jan-20 15:13N 29°56' E 121°56'0 0.0
2015-Jan-20 14:28N 29°56' E 121°56'0 0.0
2015-Jan-20 13:16N 29°56' E 121°56'0 0.0
2015-Jan-20 12:22N 29°56' E 121°56'0 0.0
2015-Jan-20 10:25N 29°56' E 121°56'0 0.0
2015-Jan-20 09:22N 29°56' E 121°56'0 0.1
2015-Jan-20 08:33N 29°56' E 121°56'5 4.5
2015-Jan-20 07:33N 29°57' E 122°01'8 8.0
2015-Jan-20 06:33N 29°56' E 122°10'9 8.8
2015-Jan-20 05:33N 29°48' E 122°15'10 9.6
2015-Jan-20 04:31N 29°44' E 122°25'5 0.9
2015-Jan-19 23:20N 29°43' E 122°31'0 0.1
2015-Jan-19 22:15N 29°43' E 122°31'0 0.0
2015-Jan-19 17:32N 29°43' E 122°31'0 0.0
2015-Jan-19 15:14N 29°43' E 122°31'0 0.4
2015-Jan-19 14:26N 29°43' E 122°31'0 0.0
2015-Jan-19 12:33N 29°44' E 122°31'5 4.6
2015-Jan-19 11:33N 29°43' E 122°36'1212.2
2015-Jan-19 10:33N 29°50' E 122°47'1313.0
2015-Jan-19 09:31N 29°57' E 123°00'2512.7
2015-Jan-19 07:32N 30°21' E 122°52'1414.0
2015-Jan-19 06:33N 30°29' E 122°38'1514.8
2015-Jan-19 05:34N 30°32' E 122°22'1413.5
2015-Jan-19 04:33N 30°35' E 122°06'2 2.0
2015-Jan-19 03:33N 30°37' E 122°05'0 0.0
2015-Jan-19 02:33N 30°37' E 122°05'0 0.0
2015-Jan-19 01:30N 30°37' E 122°05'0 0.0
2015-Jan-19 00:33N 30°37' E 122°05'0 0.0
2015-Jan-18 23:30N 30°37' E 122°05'0 0.0
2015-Jan-18 22:33N 30°37' E 122°05'  
Track history (hours):
 
Tides and Currents Weather Stations Pressure Air Temp Water Temp Dewpoint Dewpoint Depression Visibility Wind Speed Wind Dir Waves Ship Positions

CMA CGM Butterfly

Last reported at 2015-Jan-28 22:32 UTC. Time now 2015-Jan-29 20:25 UTC.
Position N 02°03' E 102°10'.

Length 350 m; draft 13.8 m.

Type: Ship (hazmat cat A). MMSI: 636091420.

Date/timePositionNaut miles runAvg speedWind from/ knotsBaromVisibWave heightAir tempDewpointWater temp
2015-Jan-28 22:32N 02°03' E 102°10'1212.1
2015-Jan-28 21:31N 01°55' E 102°20'1111.8
2015-Jan-28 20:33N 01°50' E 102°30'1111.4
2015-Jan-28 19:34N 01°45' E 102°40'2511.8
2015-Jan-28 17:27N 01°31' E 103°02'5012.8
2015-Jan-28 13:34N 01°09' E 103°46'1413.7
2015-Jan-28 12:33N 01°15' E 103°59'1313.0
2015-Jan-28 11:32N 01°17' E 104°12'  
2015-Jan-25 09:29N 21°48' E 114°27'1818.8
2015-Jan-25 08:33N 22°05' E 114°25'1713.7
2015-Jan-25 07:20N 22°13' E 114°09'1011.5
2015-Jan-25 06:30N 22°22' E 114°04'1010.9
2015-Jan-25 05:33N 22°24' E 113°53'3 3.0
2015-Jan-25 04:32N 22°27' E 113°53'0 0.0
2015-Jan-25 03:32N 22°28' E 113°53'0 0.0
2015-Jan-25 02:26N 22°28' E 113°53'0 0.0
2015-Jan-25 01:20N 22°27' E 113°53'0 0.0
2015-Jan-25 00:26N 22°28' E 113°53'0 0.0
2015-Jan-24 23:32N 22°28' E 113°53'0 0.0
2015-Jan-24 22:20N 22°27' E 113°53'0 0.0
2015-Jan-24 21:32N 22°28' E 113°53'0 0.0
2015-Jan-24 20:32N 22°28' E 113°53'0 0.0
2015-Jan-24 19:32N 22°28' E 113°53'0 0.0
2015-Jan-24 16:26N 22°28' E 113°53'0 0.0
2015-Jan-24 15:26N 22°28' E 113°53'0 0.0
2015-Jan-24 14:20N 22°28' E 113°53'0 0.0
2015-Jan-24 13:26N 22°28' E 113°53'0 0.0
2015-Jan-24 12:14N 22°28' E 113°53'0 0.0
2015-Jan-24 11:14N 22°28' E 113°53'0 0.2
2015-Jan-24 10:32N 22°27' E 113°53'16 8.3
2015-Jan-24 08:33N 22°17' E 114°06'10 9.5
2015-Jan-24 07:33N 22°10' E 114°13'8 8.0
2015-Jan-24 06:32N 22°09' E 114°22'9 9.0
2015-Jan-24 05:32N 22°15' E 114°30'6 6.0
2015-Jan-24 04:33N 22°21' E 114°30'4 0.2
2015-Jan-23 08:32N 22°20' E 114°34'12617.4
2015-Jan-23 01:19N 22°49' E 116°46'1418.6
2015-Jan-23 00:33N 22°57' E 116°59'7318.2
2015-Jan-22 20:33N 23°43' E 118°00'1918.9
2015-Jan-22 19:33N 23°55' E 118°16'1817.5
2015-Jan-22 18:32N 24°04' E 118°33'2118.4
2015-Jan-22 17:24N 24°17' E 118°51'1618.4
2015-Jan-22 16:30N 24°24' E 119°07'2118.0
2015-Jan-22 15:21N 24°37' E 119°26'32117.9
2015-Jan-21 21:29N 29°11' E 122°33'2120.9
2015-Jan-21 20:29N 29°31' E 122°35'1718.7
2015-Jan-21 19:33N 29°43' E 122°21'1514.6
2015-Jan-21 18:34N 29°54' E 122°10'1312.8
2015-Jan-21 17:34N 29°56' E 121°55'0 0.3
2015-Jan-21 16:19N 29°56' E 121°56'0 0.0
2015-Jan-21 15:07N 29°56' E 121°56'0 0.0
2015-Jan-21 13:31N 29°56' E 121°56'0 0.0
2015-Jan-21 12:31N 29°56' E 121°56'0 0.0
2015-Jan-21 11:19N 29°56' E 121°56'0 0.0
2015-Jan-21 10:19N 29°56' E 121°56'0 0.0
2015-Jan-21 09:25N 29°56' E 121°56'0 0.0
2015-Jan-21 08:13N 29°56' E 121°56'0 0.0
2015-Jan-21 07:31N 29°56' E 121°56'0 0.0
2015-Jan-21 05:31N 29°56' E 121°56'0 0.0
2015-Jan-21 03:31N 29°56' E 121°56'0 0.0
2015-Jan-21 01:16N 29°56' E 121°56'0 0.0
2015-Jan-20 22:07N 29°56' E 121°56'0 0.0
2015-Jan-20 21:13N 29°56' E 121°56'0 0.0
2015-Jan-20 20:19N 29°56' E 121°56'0 0.0
2015-Jan-20 19:13N 29°56' E 121°56'0 0.0
2015-Jan-20 18:22N 29°56' E 121°56'0 0.0
2015-Jan-20 17:19N 29°56' E 121°56'0 0.0
2015-Jan-20 16:28N 29°56' E 121°56'0 0.0
2015-Jan-20 15:13N 29°56' E 121°56'0 0.0
2015-Jan-20 14:28N 29°56' E 121°56'0 0.0
2015-Jan-20 13:16N 29°56' E 121°56'0 0.0
2015-Jan-20 12:22N 29°56' E 121°56'0 0.0
2015-Jan-20 10:25N 29°56' E 121°56'0 0.0
2015-Jan-20 09:22N 29°56' E 121°56'0 0.1
2015-Jan-20 08:33N 29°56' E 121°56'5 4.5
2015-Jan-20 07:33N 29°57' E 122°01'8 8.0
2015-Jan-20 06:33N 29°56' E 122°10'9 8.8
2015-Jan-20 05:33N 29°48' E 122°15'10 9.6
2015-Jan-20 04:31N 29°44' E 122°25'5 0.9
2015-Jan-19 23:20N 29°43' E 122°31'0 0.1
2015-Jan-19 22:15N 29°43' E 122°31'0 0.0
2015-Jan-19 17:32N 29°43' E 122°31'0 0.0
2015-Jan-19 15:14N 29°43' E 122°31'0 0.4
2015-Jan-19 14:26N 29°43' E 122°31'0 0.0
2015-Jan-19 12:33N 29°44' E 122°31'5 4.6
2015-Jan-19 11:33N 29°43' E 122°36'1212.2
2015-Jan-19 10:33N 29°50' E 122°47'1313.0
2015-Jan-19 09:31N 29°57' E 123°00'2512.7
2015-Jan-19 07:32N 30°21' E 122°52'1414.0
2015-Jan-19 06:33N 30°29' E 122°38'1514.8
2015-Jan-19 05:34N 30°32' E 122°22'1413.5
2015-Jan-19 04:33N 30°35' E 122°06'2 2.0
2015-Jan-19 03:33N 30°37' E 122°05'0 0.0
2015-Jan-19 02:33N 30°37' E 122°05'0 0.0
2015-Jan-19 01:30N 30°37' E 122°05'0 0.0
2015-Jan-19 00:33N 30°37' E 122°05'0 0.0
2015-Jan-18 23:30N 30°37' E 122°05'0 0.0
2015-Jan-18 22:33N 30°37' E 122°05'  

Dump ship's entire track history